createdAt,value
2019-03-16T00:00:35.913Z,43.23
2019-03-16T00:03:06.018Z,42.45
2019-03-16T00:05:35.981Z,42.50
2019-03-16T00:08:06.121Z,44.53
2019-03-16T00:10:36.268Z,41.23
2019-03-16T00:13:06.409Z,41.03
2019-03-16T00:15:36.589Z,40.55
2019-03-16T00:18:07.389Z,46.48
2019-03-16T00:20:37.539Z,43.23
2019-03-16T00:23:07.572Z,47.20
2019-03-16T00:25:37.838Z,46.60
2019-03-16T00:28:08.139Z,45.63
2019-03-16T00:30:38.264Z,45.60
2019-03-16T00:33:08.429Z,47.55
2019-03-16T00:35:38.606Z,41.60
2019-03-16T00:38:08.732Z,80.83
2019-03-16T00:40:38.870Z,73.07
2019-03-16T00:43:08.880Z,81.78
2019-03-16T00:45:38.990Z,42.10
2019-03-16T00:48:09.029Z,41.00
2019-03-16T00:50:38.953Z,39.67
2019-03-16T00:53:09.053Z,40.35
2019-03-16T00:55:39.427Z,43.42
2019-03-16T00:58:09.655Z,46.55
2019-03-16T01:00:39.704Z,45.98
2019-03-16T01:03:09.744Z,43.58
2019-03-16T01:05:39.900Z,33.20
2019-03-16T01:08:09.996Z,37.88
2019-03-16T01:10:40.085Z,37.03
2019-03-16T01:13:10.917Z,43.92
2019-03-16T01:15:41.085Z,36.10
2019-03-16T01:18:11.093Z,37.93
2019-03-16T01:20:41.346Z,34.25
2019-03-16T01:23:11.394Z,34.60
2019-03-16T01:25:41.467Z,61.70
2019-03-16T01:28:11.697Z,31.23
2019-03-16T01:30:41.896Z,34.38
2019-03-16T01:33:11.972Z,36.05
2019-03-16T01:35:42.383Z,35.90
2019-03-16T01:38:12.834Z,39.50
2019-03-16T01:40:42.857Z,38.38
2019-03-16T01:43:13.067Z,34.13
2019-03-16T01:45:43.107Z,30.70
2019-03-16T01:48:13.112Z,29.20
2019-03-16T01:50:43.254Z,31.23
2019-03-16T01:53:13.362Z,28.15
2019-03-16T01:55:43.402Z,30.00
2019-03-16T01:58:13.511Z,33.10
2019-03-16T02:00:43.541Z,32.03
2019-03-16T02:03:14.558Z,28.45
2019-03-16T02:05:44.791Z,28.17
2019-03-16T02:08:14.731Z,28.10
2019-03-16T02:10:44.761Z,32.63
2019-03-16T02:13:14.936Z,73.12
2019-03-16T02:15:45.013Z,31.15
2019-03-16T02:18:15.149Z,28.52
2019-03-16T02:20:45.479Z,39.42
2019-03-16T02:23:15.561Z,48.42
2019-03-16T02:25:45.454Z,48.50
2019-03-16T02:28:15.684Z,67.10
2019-03-16T02:30:45.259Z,33.03
2019-03-16T02:33:15.346Z,26.67
2019-03-16T02:35:45.651Z,26.73
2019-03-16T02:38:15.705Z,26.67
2019-03-16T02:40:45.764Z,36.25
2019-03-16T02:43:15.979Z,30.15
2019-03-16T02:45:46.322Z,29.05
2019-03-16T02:48:16.439Z,26.30
2019-03-16T02:50:46.722Z,30.20
2019-03-16T02:53:16.869Z,28.73
2019-03-16T02:55:46.990Z,26.57
2019-03-16T02:58:17.957Z,22.60
2019-03-16T03:00:48.201Z,26.97
2019-03-16T03:03:29.213Z,23.65
2019-03-16T03:05:49.871Z,44.35
2019-03-16T03:08:20.115Z,23.75
2019-03-16T03:10:50.250Z,21.48
2019-03-16T03:13:20.292Z,24.90
2019-03-16T03:15:51.383Z,22.25
2019-03-16T03:18:24.485Z,28.77
2019-03-16T03:20:55.500Z,25.90
2019-03-16T03:23:25.857Z,22.50
2019-03-16T03:25:55.872Z,41.75
2019-03-16T03:28:25.934Z,21.45
2019-03-16T03:30:56.267Z,23.75
2019-03-16T03:33:26.270Z,22.00
2019-03-16T03:35:56.819Z,22.13
2019-03-16T03:38:27.967Z,33.00
2019-03-16T03:41:01.488Z,23.02
2019-03-16T03:43:29.382Z,21.45
2019-03-16T03:47:14.858Z,20.60
2019-03-16T03:49:44.994Z,22.42
2019-03-16T03:52:15.203Z,20.72
2019-03-16T03:54:45.219Z,38.35
2019-03-16T03:57:15.457Z,24.55
2019-03-16T03:59:45.684Z,24.12
2019-03-16T04:02:15.917Z,21.93
2019-03-16T04:04:46.055Z,28.05
2019-03-16T04:07:20.042Z,26.10
2019-03-16T04:09:48.850Z,27.58
2019-03-16T04:12:18.914Z,21.53
2019-03-16T04:14:49.542Z,24.57
2019-03-16T04:17:19.666Z,21.50
2019-03-16T04:19:49.819Z,36.58
2019-03-16T04:22:19.879Z,23.42
2019-03-16T04:24:50.140Z,26.20
2019-03-16T04:27:20.253Z,37.80
2019-03-16T04:29:51.318Z,25.50
2019-03-16T04:32:21.405Z,48.78
2019-03-16T04:34:51.722Z,28.60
2019-03-16T04:37:21.821Z,82.23
2019-03-16T04:39:52.333Z,41.10
2019-03-16T04:42:22.427Z,33.33
2019-03-16T04:44:53.442Z,31.15
2019-03-16T04:47:23.658Z,25.32
2019-03-16T04:49:53.737Z,28.17
2019-03-16T04:52:23.828Z,26.75
2019-03-16T04:54:53.906Z,28.02
2019-03-16T04:57:24.013Z,29.37
2019-03-16T04:59:54.266Z,28.05
2019-03-16T05:02:24.161Z,28.30
2019-03-16T05:04:54.624Z,46.68
2019-03-16T05:07:24.779Z,41.55
2019-03-16T05:09:54.952Z,33.95
2019-03-16T05:12:25.058Z,30.80
2019-03-16T05:14:54.942Z,38.90
2019-03-16T05:17:25.265Z,24.18
2019-03-16T05:19:55.337Z,29.03
2019-03-16T05:22:25.417Z,30.88
2019-03-16T05:24:55.627Z,28.32
2019-03-16T05:27:25.729Z,29.33
2019-03-16T05:32:06.615Z,31.03
2019-03-16T05:34:37.364Z,31.10
2019-03-16T05:37:07.593Z,48.63
2019-03-16T05:39:38.083Z,59.30
2019-03-16T05:42:08.177Z,34.95
2019-03-16T05:44:38.252Z,38.17
2019-03-16T05:47:08.330Z,31.43
2019-03-16T05:49:38.494Z,31.70
2019-03-16T05:52:08.531Z,29.00
2019-03-16T05:54:39.100Z,28.95
2019-03-16T05:57:09.168Z,28.75
2019-03-16T05:59:39.357Z,38.58
2019-03-16T06:02:09.671Z,30.82
2019-03-16T06:04:42.568Z,33.95
2019-03-16T06:07:12.802Z,33.00
2019-03-16T06:09:42.868Z,32.17
2019-03-16T06:12:12.969Z,29.05
2019-03-16T06:14:43.134Z,49.45
2019-03-16T06:17:13.117Z,32.28
2019-03-16T06:19:43.502Z,44.60
2019-03-16T06:22:13.742Z,28.55
2019-03-16T06:24:43.751Z,28.05
2019-03-16T06:27:14.049Z,30.43
2019-03-16T06:29:44.307Z,31.05
2019-03-16T06:32:16.144Z,36.73
2019-03-16T06:34:46.953Z,30.85
2019-03-16T06:37:17.279Z,31.93
2019-03-16T06:39:47.392Z,30.40
2019-03-16T06:42:17.458Z,31.90
2019-03-16T06:44:47.795Z,32.10
2019-03-16T06:47:17.881Z,27.77
2019-03-16T06:49:48.175Z,29.00
2019-03-16T06:52:18.507Z,29.15
2019-03-16T06:54:48.721Z,29.63
2019-03-16T06:57:18.780Z,30.35
2019-03-16T06:59:48.954Z,28.98
2019-03-16T07:02:19.068Z,29.10
2019-03-16T07:04:49.302Z,29.97
2019-03-16T07:07:19.303Z,30.80
2019-03-16T07:09:49.317Z,38.95
2019-03-16T07:12:19.681Z,36.03
2019-03-16T07:14:49.748Z,39.90
2019-03-16T07:17:19.820Z,33.88
2019-03-16T07:19:50.270Z,32.58
2019-03-16T07:22:20.643Z,47.15
2019-03-16T07:24:51.834Z,32.73
2019-03-16T07:27:26.318Z,54.20
2019-03-16T07:29:53.788Z,114.88
2019-03-16T07:32:24.339Z,43.57
2019-03-16T07:34:55.083Z,39.50
2019-03-16T07:37:25.333Z,32.28
2019-03-16T07:39:56.383Z,33.10
2019-03-16T07:45:08.222Z,31.87
2019-03-16T07:47:31.012Z,34.73
2019-03-16T07:50:01.884Z,33.13
2019-03-16T07:52:32.862Z,32.98
2019-03-16T07:55:03.162Z,33.08
2019-03-16T07:57:40.033Z,32.15
2019-03-16T08:00:09.014Z,32.53
2019-03-16T08:02:39.667Z,31.87
2019-03-16T08:05:18.367Z,49.27
2019-03-16T08:07:42.660Z,34.30
2019-03-16T08:10:22.075Z,33.08
2019-03-16T08:12:52.338Z,33.50
2019-03-16T08:15:22.690Z,33.28
2019-03-16T08:17:54.145Z,33.63
2019-03-16T08:20:25.200Z,34.27
2019-03-16T08:22:55.672Z,40.90
2019-03-16T08:25:26.272Z,34.00
2019-03-16T08:27:56.946Z,34.25
2019-03-16T08:30:27.194Z,34.15
2019-03-16T08:32:57.561Z,34.27
2019-03-16T08:35:28.134Z,33.78
2019-03-16T08:37:58.465Z,33.50
2019-03-16T08:40:28.962Z,34.23
2019-03-16T08:42:59.389Z,33.97
2019-03-16T08:45:29.756Z,34.03
2019-03-16T08:48:02.452Z,35.03
2019-03-16T08:50:33.570Z,40.12
2019-03-16T08:53:08.034Z,36.88
2019-03-16T08:55:38.503Z,34.35
2019-03-16T08:58:08.452Z,34.57
2019-03-16T09:00:38.610Z,36.55
2019-03-16T09:03:08.978Z,35.63
2019-03-16T09:05:39.099Z,35.63
2019-03-16T09:08:09.379Z,33.28
2019-03-16T09:10:39.263Z,34.70
2019-03-16T09:13:09.898Z,34.80
2019-03-16T09:15:39.899Z,35.40
2019-03-16T09:18:10.068Z,34.73
2019-03-16T09:20:40.241Z,35.80
2019-03-16T09:23:10.739Z,42.17
2019-03-16T09:25:40.878Z,36.63
2019-03-16T09:28:18.531Z,35.70
2019-03-16T09:30:42.587Z,36.45
2019-03-16T09:33:12.869Z,37.53
2019-03-16T09:35:43.162Z,35.52
2019-03-16T09:38:13.278Z,36.42
2019-03-16T09:40:43.628Z,36.05
2019-03-16T09:43:13.736Z,36.98
2019-03-16T09:45:43.930Z,39.23
2019-03-16T09:48:13.981Z,37.38
2019-03-16T09:50:43.936Z,38.53
2019-03-16T09:53:13.929Z,38.40
2019-03-16T09:55:43.972Z,36.50
2019-03-16T09:58:14.077Z,37.05
2019-03-16T10:00:44.100Z,42.73
2019-03-16T10:03:14.355Z,61.42
2019-03-16T10:05:44.520Z,46.67
2019-03-16T10:08:14.647Z,41.35
2019-03-16T10:10:44.916Z,45.10
2019-03-16T10:13:15.145Z,44.27
2019-03-16T10:15:45.249Z,38.42
2019-03-16T10:18:15.337Z,37.60
2019-03-16T10:20:45.467Z,37.28
2019-03-16T10:23:15.476Z,47.73
2019-03-16T10:25:45.849Z,42.70
2019-03-16T10:28:15.994Z,37.80
2019-03-16T10:30:47.460Z,53.58
2019-03-16T10:33:17.954Z,37.28
2019-03-16T10:35:48.173Z,39.47
2019-03-16T10:38:18.508Z,40.50
2019-03-16T10:40:48.554Z,39.30
2019-03-16T10:43:18.567Z,42.63
2019-03-16T10:45:48.753Z,40.25
2019-03-16T10:48:18.835Z,39.88
2019-03-16T10:50:48.849Z,40.75
2019-03-16T10:53:18.921Z,41.60
2019-03-16T10:55:48.993Z,42.77
2019-03-16T10:58:19.035Z,41.00
2019-03-16T11:00:49.140Z,63.80
2019-03-16T11:03:20.421Z,61.98
2019-03-16T11:05:50.439Z,50.67
2019-03-16T11:08:20.690Z,46.20
2019-03-16T11:10:50.813Z,45.30
2019-03-16T11:13:21.162Z,73.37
2019-03-16T11:15:51.248Z,53.15
2019-03-16T11:18:21.298Z,46.02
2019-03-16T11:20:51.372Z,48.63
2019-03-16T11:23:21.559Z,49.98
2019-03-16T11:25:51.621Z,56.63
2019-03-16T11:28:22.081Z,49.48
2019-03-16T11:30:52.001Z,50.05
2019-03-16T11:33:22.187Z,56.58
2019-03-16T11:35:52.579Z,57.75
2019-03-16T11:38:22.815Z,56.42
2019-03-16T11:40:52.394Z,50.33
2019-03-16T11:43:22.476Z,50.70
2019-03-16T11:45:52.756Z,52.80
2019-03-16T11:48:23.084Z,48.25
2019-03-16T11:50:53.196Z,46.18
2019-03-16T11:53:23.180Z,54.37
2019-03-16T11:55:54.463Z,58.15
2019-03-16T11:58:25.034Z,55.33
2019-03-16T12:00:55.044Z,50.85
2019-03-16T12:03:25.125Z,51.85
2019-03-16T12:05:55.299Z,53.10
2019-03-16T12:08:25.348Z,51.88
2019-03-16T12:10:55.581Z,53.08
2019-03-16T12:13:25.694Z,56.20
2019-03-16T12:15:55.883Z,54.15
2019-03-16T12:18:26.026Z,50.85
2019-03-16T12:20:56.157Z,52.60
2019-03-16T12:23:26.235Z,54.00
2019-03-16T12:25:56.077Z,49.83
2019-03-16T12:28:26.158Z,52.60
2019-03-16T12:30:56.279Z,54.85
2019-03-16T12:33:26.254Z,50.33
2019-03-16T12:35:56.478Z,50.43
2019-03-16T12:38:26.769Z,53.98
2019-03-16T12:40:56.798Z,58.38
2019-03-16T12:43:27.011Z,51.90
2019-03-16T12:45:57.143Z,51.83
2019-03-16T12:48:27.164Z,54.00
2019-03-16T12:50:57.461Z,50.83
2019-03-16T12:53:27.652Z,56.40
2019-03-16T12:55:57.766Z,52.70
2019-03-16T12:58:27.748Z,58.35
2019-03-16T13:00:57.725Z,53.10
2019-03-16T13:03:27.896Z,52.75
2019-03-16T13:05:57.850Z,54.38
2019-03-16T13:08:28.136Z,54.85
2019-03-16T13:10:58.245Z,52.60
2019-03-16T13:13:28.314Z,52.70
2019-03-16T13:15:58.385Z,57.93
2019-03-16T13:18:28.633Z,59.45
2019-03-16T13:20:58.772Z,54.90
2019-03-16T13:23:28.999Z,58.52
2019-03-16T13:25:58.968Z,59.67
2019-03-16T13:28:29.248Z,59.65
2019-03-16T13:30:59.149Z,60.92
2019-03-16T13:33:29.162Z,57.40
2019-03-16T13:35:59.532Z,61.15
2019-03-16T13:38:29.593Z,58.17
2019-03-16T13:40:59.694Z,62.15
2019-03-16T13:43:29.982Z,58.83
2019-03-16T13:46:00.098Z,59.38
2019-03-16T13:48:30.063Z,64.30
2019-03-16T13:51:00.256Z,59.03
2019-03-16T13:53:32.611Z,64.40
2019-03-16T13:56:01.792Z,72.12
2019-03-16T13:58:31.858Z,68.83
2019-03-16T14:01:02.169Z,79.17
2019-03-16T14:03:32.211Z,76.42
2019-03-16T14:06:02.661Z,79.37
2019-03-16T14:08:32.818Z,73.55
2019-03-16T14:11:03.042Z,75.33
2019-03-16T14:13:33.442Z,68.30
2019-03-16T14:16:03.642Z,71.77
2019-03-16T14:18:33.548Z,70.78
2019-03-16T14:21:03.591Z,71.42
2019-03-16T14:23:33.594Z,67.75
2019-03-16T14:26:03.866Z,69.00
2019-03-16T14:28:34.037Z,63.77
2019-03-16T14:31:04.223Z,68.85
2019-03-16T14:33:34.478Z,66.03
2019-03-16T14:36:05.022Z,66.45
2019-03-16T14:38:35.223Z,67.65
2019-03-16T14:41:05.638Z,70.35
2019-03-16T14:43:36.401Z,69.97
2019-03-16T14:46:06.521Z,73.12
2019-03-16T14:48:36.493Z,66.72
2019-03-16T14:51:07.061Z,69.25
2019-03-16T14:53:37.204Z,67.55
2019-03-16T14:56:07.429Z,62.50
2019-03-16T14:58:37.795Z,63.85
2019-03-16T15:01:07.880Z,62.20
2019-03-16T15:03:38.051Z,61.48
2019-03-16T15:06:08.360Z,61.92
2019-03-16T15:08:39.176Z,66.33
2019-03-16T15:11:09.117Z,62.17
2019-03-16T15:13:39.286Z,64.07
2019-03-16T15:16:09.254Z,65.03
2019-03-16T15:18:39.302Z,63.83
2019-03-16T15:21:09.598Z,68.33
2019-03-16T15:23:39.811Z,71.85
2019-03-16T15:26:09.951Z,76.47
2019-03-16T15:28:40.130Z,72.03
2019-03-16T15:31:10.998Z,73.00
2019-03-16T15:33:41.102Z,74.75
2019-03-16T15:36:11.149Z,73.90
2019-03-16T15:38:41.180Z,76.62
2019-03-16T15:41:11.276Z,73.92
2019-03-16T15:43:41.045Z,68.87
2019-03-16T15:46:11.020Z,71.50
2019-03-16T15:48:40.986Z,74.77
2019-03-16T15:51:11.037Z,72.60
2019-03-16T15:53:41.135Z,74.53
2019-03-16T15:56:11.182Z,86.00
2019-03-16T15:58:41.346Z,83.90
2019-03-16T16:01:11.473Z,75.45
2019-03-16T16:03:41.608Z,75.97
2019-03-16T16:06:11.824Z,70.87
2019-03-16T16:08:41.897Z,67.12
2019-03-16T16:11:11.880Z,70.90
2019-03-16T16:13:41.896Z,75.20
2019-03-16T16:16:12.049Z,74.35
2019-03-16T16:18:42.273Z,76.27
2019-03-16T16:21:12.343Z,82.90
2019-03-16T16:23:42.523Z,81.07
2019-03-16T16:26:12.739Z,79.60
2019-03-16T16:28:42.654Z,75.97
2019-03-16T16:31:16.484Z,77.65
2019-03-16T16:33:44.210Z,87.70
2019-03-16T16:36:15.107Z,101.92
2019-03-16T16:38:45.174Z,95.42
2019-03-16T16:41:15.406Z,90.07
2019-03-16T16:43:45.427Z,89.40
2019-03-16T16:46:15.597Z,78.80
2019-03-16T16:48:45.284Z,70.72
2019-03-16T16:51:16.059Z,75.78
2019-03-16T16:53:46.144Z,72.35
2019-03-16T16:56:16.332Z,78.65
2019-03-16T16:58:46.672Z,76.65
2019-03-16T17:01:28.464Z,74.67
2019-03-16T17:03:48.258Z,81.67
2019-03-16T17:06:18.319Z,80.65
2019-03-16T17:08:48.460Z,83.82
2019-03-16T17:11:18.611Z,81.15
2019-03-16T17:13:48.523Z,87.10
2019-03-16T17:16:18.747Z,92.60
2019-03-16T17:18:48.854Z,87.87
2019-03-16T17:21:18.897Z,88.97
2019-03-16T17:23:49.011Z,118.90
2019-03-16T17:26:19.168Z,109.05
2019-03-16T17:28:49.186Z,101.22
2019-03-16T17:31:19.457Z,93.95
2019-03-16T17:33:49.552Z,97.75
2019-03-16T17:36:22.143Z,107.25
2019-03-16T17:38:51.348Z,100.43
2019-03-16T17:41:21.967Z,100.60
2019-03-16T17:43:52.012Z,96.37
2019-03-16T17:46:22.310Z,95.97
2019-03-16T17:48:52.454Z,86.85
2019-03-16T17:51:22.626Z,87.20
2019-03-16T17:53:52.739Z,86.12
2019-03-16T17:56:22.761Z,86.28
2019-03-16T17:58:52.928Z,91.53
2019-03-16T18:01:23.277Z,85.10
2019-03-16T18:03:53.413Z,90.97
2019-03-16T18:06:23.310Z,87.42
2019-03-16T18:08:53.646Z,84.37
2019-03-16T18:11:23.671Z,86.95
2019-03-16T18:13:53.788Z,86.75
2019-03-16T18:16:23.829Z,88.67
2019-03-16T18:18:54.038Z,89.32
2019-03-16T18:21:24.197Z,83.07
2019-03-16T18:23:54.387Z,86.00
2019-03-16T18:26:24.347Z,94.13
2019-03-16T18:28:54.538Z,90.03
2019-03-16T18:31:24.772Z,85.80
2019-03-16T18:33:54.773Z,87.55
2019-03-16T18:36:24.838Z,85.97
2019-03-16T18:38:55.073Z,86.82
2019-03-16T18:41:25.078Z,88.03
2019-03-16T18:43:55.111Z,85.25
2019-03-16T18:46:25.514Z,90.70
2019-03-16T18:48:55.639Z,88.40
2019-03-16T18:51:25.733Z,91.87
2019-03-16T18:53:56.083Z,83.87
2019-03-16T18:56:26.194Z,90.72
2019-03-16T18:58:56.399Z,85.67
2019-03-16T19:01:26.299Z,87.53
2019-03-16T19:03:56.557Z,87.92
2019-03-16T19:06:26.813Z,87.92
2019-03-16T19:08:56.845Z,88.62
2019-03-16T19:11:26.986Z,92.67
2019-03-16T19:13:57.118Z,92.05
2019-03-16T19:16:27.269Z,91.57
2019-03-16T19:18:57.247Z,89.72
2019-03-16T19:21:27.262Z,90.40
2019-03-16T19:23:57.692Z,91.63
2019-03-16T19:26:29.974Z,89.87
2019-03-16T19:28:59.184Z,96.33
2019-03-16T19:31:29.324Z,94.07
2019-03-16T19:33:59.442Z,92.27
2019-03-16T19:36:29.636Z,90.83
2019-03-16T19:38:59.546Z,96.87
2019-03-16T19:41:29.829Z,92.85
2019-03-16T19:44:00.093Z,98.80
2019-03-16T19:46:30.343Z,89.97
2019-03-16T19:49:00.530Z,95.83
2019-03-16T19:51:30.580Z,97.80
2019-03-16T19:54:00.568Z,97.10
2019-03-16T19:56:30.724Z,93.42
2019-03-16T19:59:01.144Z,85.32
2019-03-16T20:01:31.350Z,97.47
2019-03-16T20:04:01.561Z,98.22
2019-03-16T20:06:31.698Z,95.40
2019-03-16T20:09:01.832Z,99.72
2019-03-16T20:11:32.059Z,97.22
2019-03-16T20:14:02.011Z,97.47
2019-03-16T20:16:32.185Z,102.97
2019-03-16T20:19:02.188Z,100.62
2019-03-16T20:21:32.440Z,97.08
2019-03-16T20:24:02.606Z,101.60
2019-03-16T20:26:32.633Z,96.87
2019-03-16T20:29:02.931Z,98.22
2019-03-16T20:31:33.081Z,98.80
2019-03-16T20:34:03.194Z,95.75
2019-03-16T20:36:33.373Z,96.60
2019-03-16T20:39:03.564Z,93.75
2019-03-16T20:41:36.307Z,96.37
2019-03-16T20:44:05.425Z,95.28
2019-03-16T20:46:35.662Z,98.47
2019-03-16T20:49:05.810Z,95.97
2019-03-16T20:51:36.058Z,91.08
2019-03-16T20:54:06.296Z,87.15
2019-03-16T20:56:36.487Z,87.37
2019-03-16T20:59:06.572Z,84.10
2019-03-16T21:01:37.362Z,86.78
2019-03-16T21:04:07.528Z,81.57
2019-03-16T21:06:37.547Z,79.00
2019-03-16T21:09:08.313Z,77.80
2019-03-16T21:11:38.384Z,79.35
2019-03-16T21:14:08.543Z,74.62
2019-03-16T21:16:38.495Z,75.52
2019-03-16T21:19:08.999Z,73.57
2019-03-16T21:21:38.848Z,70.97
2019-03-16T21:24:08.886Z,76.33
2019-03-16T21:26:51.667Z,76.27
2019-03-16T21:29:10.957Z,76.25
2019-03-16T21:31:41.076Z,72.80
2019-03-16T21:34:11.227Z,72.58
2019-03-16T21:36:41.923Z,74.33
2019-03-16T21:39:12.165Z,72.70
2019-03-16T21:41:44.331Z,73.40
2019-03-16T21:44:14.095Z,74.47
2019-03-16T21:46:44.123Z,72.35
2019-03-16T21:49:14.364Z,71.27
2019-03-16T21:51:44.358Z,71.25
2019-03-16T21:54:14.283Z,72.10
2019-03-16T21:56:44.488Z,69.82
2019-03-16T21:59:14.455Z,75.03
2019-03-16T22:01:44.652Z,71.17
2019-03-16T22:04:14.727Z,71.50
2019-03-16T22:06:44.914Z,69.62
2019-03-16T22:09:15.015Z,71.35
2019-03-16T22:11:45.170Z,70.30
2019-03-16T22:14:15.271Z,69.60
2019-03-16T22:16:45.274Z,68.67
2019-03-16T22:19:15.438Z,67.92
2019-03-16T22:21:45.434Z,71.55
2019-03-16T22:24:15.546Z,67.15
2019-03-16T22:26:45.554Z,68.65
2019-03-16T22:29:15.647Z,66.15
2019-03-16T22:31:45.989Z,64.70
2019-03-16T22:34:16.085Z,66.47
2019-03-16T22:36:46.090Z,66.95
2019-03-16T22:39:16.254Z,63.68
2019-03-16T22:41:46.401Z,64.80
2019-03-16T22:44:17.001Z,63.55
2019-03-16T22:46:46.994Z,65.30
2019-03-16T22:49:17.200Z,64.25
2019-03-16T22:51:47.291Z,69.77
2019-03-16T22:54:19.236Z,65.45
2019-03-16T22:56:48.889Z,61.85
2019-03-16T22:59:19.374Z,61.75
2019-03-16T23:01:49.488Z,63.05
2019-03-16T23:04:19.425Z,61.60
2019-03-16T23:06:49.566Z,61.28
2019-03-16T23:09:19.882Z,63.80
2019-03-16T23:11:49.943Z,60.52
2019-03-16T23:14:19.987Z,66.50
2019-03-16T23:16:50.153Z,62.05
2019-03-16T23:19:20.288Z,63.25
2019-03-16T23:21:50.355Z,64.03
2019-03-16T23:24:20.814Z,61.63
2019-03-16T23:26:50.879Z,63.23
2019-03-16T23:29:20.862Z,63.83
2019-03-16T23:31:51.127Z,68.13
2019-03-16T23:34:21.337Z,61.13
2019-03-16T23:36:51.461Z,65.57
2019-03-16T23:39:21.552Z,66.07
2019-03-16T23:41:51.802Z,61.90
2019-03-16T23:44:21.881Z,62.40
2019-03-16T23:46:51.913Z,61.92
2019-03-16T23:49:21.997Z,67.10
2019-03-16T23:51:51.977Z,69.80
2019-03-16T23:54:22.263Z,74.50
2019-03-16T23:56:52.415Z,84.28
2019-03-16T23:59:22.463Z,81.10
